sensor_id;sensor_type;location;lat;lon;timestamp;pressure;altitude;pressure_sealevel;temperature;humidity
68988;BME280;56038;46.080;11.116;2023-04-10T00:03:00;100006.09;;;9.17;60.19
68988;BME280;56038;46.080;11.116;2023-04-10T00:08:04;100006.31;;;9.08;60.26
68988;BME280;56038;46.080;11.116;2023-04-10T00:13:05;99997.06;;;8.94;60.23
68988;BME280;56038;46.080;11.116;2023-04-10T00:18:07;100001.53;;;8.89;60.45
68988;BME280;56038;46.080;11.116;2023-04-10T00:23:10;99991.09;;;8.89;60.04
68988;BME280;56038;46.080;11.116;2023-04-10T00:28:12;99993.00;;;8.81;60.36
68988;BME280;56038;46.080;11.116;2023-04-10T00:33:15;99998.38;;;8.75;60.50
68988;BME280;56038;46.080;11.116;2023-04-10T00:38:18;100001.31;;;8.60;60.97
68988;BME280;56038;46.080;11.116;2023-04-10T00:43:21;99985.19;;;8.44;61.18
68988;BME280;56038;46.080;11.116;2023-04-10T00:48:23;99994.06;;;8.34;61.18
68988;BME280;56038;46.080;11.116;2023-04-10T00:53:28;99995.00;;;8.30;61.61
68988;BME280;56038;46.080;11.116;2023-04-10T00:58:29;99991.66;;;8.23;61.27
68988;BME280;56038;46.080;11.116;2023-04-10T01:03:31;99993.44;;;8.21;61.33
68988;BME280;56038;46.080;11.116;2023-04-10T01:08:38;99995.31;;;8.15;61.71
68988;BME280;56038;46.080;11.116;2023-04-10T01:13:46;99992.91;;;8.04;62.28
68988;BME280;56038;46.080;11.116;2023-04-10T01:18:55;99992.72;;;8.13;61.57
68988;BME280;56038;46.080;11.116;2023-04-10T01:24:17;99987.47;;;8.16;62.60
68988;BME280;56038;46.080;11.116;2023-04-10T01:29:24;99994.31;;;8.20;61.03
68988;BME280;56038;46.080;11.116;2023-04-10T01:34:32;99998.66;;;8.20;61.06
68988;BME280;56038;46.080;11.116;2023-04-10T01:39:38;99999.66;;;8.14;60.99
68988;BME280;56038;46.080;11.116;2023-04-10T01:44:45;99997.16;;;8.09;61.24
68988;BME280;56038;46.080;11.116;2023-04-10T01:49:48;99994.66;;;8.03;61.73
68988;BME280;56038;46.080;11.116;2023-04-10T01:54:51;99996.59;;;7.94;61.89
68988;BME280;56038;46.080;11.116;2023-04-10T01:59:54;99994.97;;;7.87;62.29
68988;BME280;56038;46.080;11.116;2023-04-10T02:04:56;99992.53;;;7.79;62.60
68988;BME280;56038;46.080;11.116;2023-04-10T02:10:03;99992.81;;;7.64;63.28
68988;BME280;56038;46.080;11.116;2023-04-10T02:15:10;99993.94;;;7.50;63.62
68988;BME280;56038;46.080;11.116;2023-04-10T02:20:13;99998.16;;;7.56;63.41
68988;BME280;56038;46.080;11.116;2023-04-10T02:25:15;100001.66;;;7.54;62.53
68988;BME280;56038;46.080;11.116;2023-04-10T02:30:18;99998.38;;;7.44;62.77
68988;BME280;56038;46.080;11.116;2023-04-10T02:35:20;100002.94;;;7.31;63.06
68988;BME280;56038;46.080;11.116;2023-04-10T02:40:22;99995.09;;;7.33;62.41
68988;BME280;56038;46.080;11.116;2023-04-10T02:45:25;99999.41;;;7.34;62.69
68988;BME280;56038;46.080;11.116;2023-04-10T02:50:27;99992.38;;;7.39;62.00
68988;BME280;56038;46.080;11.116;2023-04-10T02:55:31;100002.81;;;7.37;61.97
68988;BME280;56038;46.080;11.116;2023-04-10T03:00:36;99996.06;;;7.27;62.46
68988;BME280;56038;46.080;11.116;2023-04-10T03:05:48;99988.56;;;7.10;62.40
68988;BME280;56038;46.080;11.116;2023-04-10T03:10:57;99995.53;;;7.05;62.67
68988;BME280;56038;46.080;11.116;2023-04-10T03:16:01;100003.34;;;7.05;62.55
68988;BME280;56038;46.080;11.116;2023-04-10T03:21:03;100003.41;;;7.02;62.30
68988;BME280;56038;46.080;11.116;2023-04-10T03:26:05;100000.00;;;6.99;62.30
68988;BME280;56038;46.080;11.116;2023-04-10T03:31:09;100001.88;;;6.87;63.24
68988;BME280;56038;46.080;11.116;2023-04-10T03:36:13;100011.31;;;6.95;63.07
68988;BME280;56038;46.080;11.116;2023-04-10T03:41:14;100004.44;;;6.90;63.38
68988;BME280;56038;46.080;11.116;2023-04-10T03:46:17;100013.22;;;6.83;63.12
68988;BME280;56038;46.080;11.116;2023-04-10T03:51:19;100009.72;;;6.84;63.58
68988;BME280;56038;46.080;11.116;2023-04-10T03:56:22;100008.06;;;6.80;63.71
68988;BME280;56038;46.080;11.116;2023-04-10T04:01:26;100018.53;;;6.73;63.44
68988;BME280;56038;46.080;11.116;2023-04-10T04:06:36;100029.81;;;6.72;62.97
68988;BME280;56038;46.080;11.116;2023-04-10T04:11:39;100031.63;;;6.67;63.22
68988;BME280;56038;46.080;11.116;2023-04-10T04:16:43;100028.22;;;6.63;63.41
68988;BME280;56038;46.080;11.116;2023-04-10T04:21:45;100037.72;;;6.64;63.03
68988;BME280;56038;46.080;11.116;2023-04-10T04:26:46;100044.72;;;6.56;63.96
68988;BME280;56038;46.080;11.116;2023-04-10T04:31:50;100051.78;;;6.45;63.36
68988;BME280;56038;46.080;11.116;2023-04-10T04:36:51;100063.88;;;6.49;63.47
68988;BME280;56038;46.080;11.116;2023-04-10T04:41:53;100066.50;;;6.44;64.30
68988;BME280;56038;46.080;11.116;2023-04-10T04:46:56;100064.91;;;6.31;64.51
68988;BME280;56038;46.080;11.116;2023-04-10T04:51:58;100064.91;;;6.31;63.77
68988;BME280;56038;46.080;11.116;2023-04-10T04:56:59;100073.56;;;6.33;63.78
68988;BME280;56038;46.080;11.116;2023-04-10T05:02:03;100077.91;;;6.29;63.81
68988;BME280;56038;46.080;11.116;2023-04-10T05:07:04;100078.03;;;6.20;64.74
68988;BME280;56038;46.080;11.116;2023-04-10T05:12:07;100085.84;;;6.19;64.24
68988;BME280;56038;46.080;11.116;2023-04-10T05:17:12;100091.88;;;6.21;63.70
68988;BME280;56038;46.080;11.116;2023-04-10T05:22:16;100077.19;;;6.18;63.94
68988;BME280;56038;46.080;11.116;2023-04-10T05:27:17;100084.03;;;6.24;64.03
68988;BME280;56038;46.080;11.116;2023-04-10T05:32:21;100096.03;;;6.34;63.57
68988;BME280;56038;46.080;11.116;2023-04-10T05:37:22;100090.72;;;6.43;63.06
68988;BME280;56038;46.080;11.116;2023-04-10T05:42:24;100093.97;;;6.60;63.04
68988;BME280;56038;46.080;11.116;2023-04-10T05:47:27;100096.44;;;6.73;62.08
68988;BME280;56038;46.080;11.116;2023-04-10T05:52:29;100103.97;;;6.91;62.07
68988;BME280;56038;46.080;11.116;2023-04-10T05:57:31;100108.88;;;7.14;61.20
68988;BME280;56038;46.080;11.116;2023-04-10T06:02:34;100123.28;;;7.35;60.06
68988;BME280;56038;46.080;11.116;2023-04-10T06:07:36;100130.88;;;7.47;59.35
68988;BME280;56038;46.080;11.116;2023-04-10T06:12:37;100130.59;;;7.65;59.06
68988;BME280;56038;46.080;11.116;2023-04-10T06:17:44;100136.38;;;7.82;58.99
68988;BME280;56038;46.080;11.116;2023-04-10T06:22:46;100140.34;;;8.05;57.83
68988;BME280;56038;46.080;11.116;2023-04-10T06:27:48;100139.59;;;8.46;58.06
68988;BME280;56038;46.080;11.116;2023-04-10T06:32:51;100136.75;;;8.58;56.86
68988;BME280;56038;46.080;11.116;2023-04-10T06:37:53;100149.53;;;8.72;56.33
68988;BME280;56038;46.080;11.116;2023-04-10T06:42:54;100135.31;;;8.87;55.80
68988;BME280;56038;46.080;11.116;2023-04-10T06:47:57;100135.75;;;9.07;55.85
68988;BME280;56038;46.080;11.116;2023-04-10T06:52:59;100135.84;;;9.78;56.44
68988;BME280;56038;46.080;11.116;2023-04-10T06:58:01;100131.91;;;9.96;53.48
68988;BME280;56038;46.080;11.116;2023-04-10T07:03:05;100125.47;;;9.75;52.85
68988;BME280;56038;46.080;11.116;2023-04-10T07:08:07;100124.13;;;9.59;52.77
68988;BME280;56038;46.080;11.116;2023-04-10T07:13:09;100116.94;;;9.69;52.74
68988;BME280;56038;46.080;11.116;2023-04-10T07:18:12;100108.72;;;9.84;52.32
68988;BME280;56038;46.080;11.116;2023-04-10T07:23:13;100106.72;;;9.95;51.19
68988;BME280;56038;46.080;11.116;2023-04-10T07:28:16;100102.91;;;10.07;51.04
68988;BME280;56038;46.080;11.116;2023-04-10T07:33:19;100094.63;;;10.56;52.09
68988;BME280;56038;46.080;11.116;2023-04-10T07:38:21;100098.41;;;11.33;51.41
68988;BME280;56038;46.080;11.116;2023-04-10T07:43:24;100089.28;;;10.90;49.42
68988;BME280;56038;46.080;11.116;2023-04-10T07:48:27;100097.56;;;10.75;49.00
68988;BME280;56038;46.080;11.116;2023-04-10T07:53:29;100087.94;;;10.77;49.09
68988;BME280;56038;46.080;11.116;2023-04-10T07:58:30;100088.44;;;10.88;48.35
68988;BME280;56038;46.080;11.116;2023-04-10T08:03:38;100085.97;;;10.84;47.40
68988;BME280;56038;46.080;11.116;2023-04-10T08:08:41;100076.81;;;10.98;47.36
68988;BME280;56038;46.080;11.116;2023-04-10T08:13:43;100072.66;;;11.21;46.82
68988;BME280;56038;46.080;11.116;2023-04-10T08:18:46;100070.94;;;11.46;47.40
68988;BME280;56038;46.080;11.116;2023-04-10T08:23:49;100075.47;;;11.67;46.91
68988;BME280;56038;46.080;11.116;2023-04-10T08:28:51;100059.63;;;11.72;46.29
68988;BME280;56038;46.080;11.116;2023-04-10T08:33:55;100066.31;;;11.28;45.60
68988;BME280;56038;46.080;11.116;2023-04-10T08:38:57;100058.34;;;11.59;45.69
68988;BME280;56038;46.080;11.116;2023-04-10T08:43:58;100057.53;;;11.83;45.23
68988;BME280;56038;46.080;11.116;2023-04-10T08:49:03;100042.19;;;12.22;44.44
68988;BME280;56038;46.080;11.116;2023-04-10T08:54:07;100030.13;;;12.42;43.71
68988;BME280;56038;46.080;11.116;2023-04-10T08:59:11;100023.91;;;12.68;43.40
68988;BME280;56038;46.080;11.116;2023-04-10T09:04:14;100018.84;;;13.07;43.04
68988;BME280;56038;46.080;11.116;2023-04-10T09:09:17;100003.19;;;13.05;41.95
68988;BME280;56038;46.080;11.116;2023-04-10T09:14:19;100005.28;;;12.97;41.32
68988;BME280;56038;46.080;11.116;2023-04-10T09:19:30;99998.03;;;13.26;39.91
68988;BME280;56038;46.080;11.116;2023-04-10T09:24:35;100000.88;;;13.82;40.82
68988;BME280;56038;46.080;11.116;2023-04-10T09:29:46;99984.72;;;14.30;39.20
68988;BME280;56038;46.080;11.116;2023-04-10T09:34:54;99980.34;;;14.50;37.47
68988;BME280;56038;46.080;11.116;2023-04-10T09:39:58;99980.41;;;15.39;38.16
68988;BME280;56038;46.080;11.116;2023-04-10T09:45:00;99954.50;;;15.99;37.11
68988;BME280;56038;46.080;11.116;2023-04-10T09:50:04;99951.56;;;16.37;35.68
68988;BME280;56038;46.080;11.116;2023-04-10T09:55:07;99950.41;;;16.58;35.46
68988;BME280;56038;46.080;11.116;2023-04-10T10:00:10;99937.31;;;16.72;35.48
68988;BME280;56038;46.080;11.116;2023-04-10T10:05:15;99925.13;;;17.46;34.67
68988;BME280;56038;46.080;11.116;2023-04-10T10:10:18;99919.94;;;18.03;34.58
68988;BME280;56038;46.080;11.116;2023-04-10T10:15:23;99909.47;;;18.15;34.07
68988;BME280;56038;46.080;11.116;2023-04-10T10:20:31;99900.06;;;17.39;32.62
68988;BME280;56038;46.080;11.116;2023-04-10T10:25:33;99898.03;;;17.86;32.84
68988;BME280;56038;46.080;11.116;2023-04-10T10:30:36;99877.38;;;18.75;32.25
68988;BME280;56038;46.080;11.116;2023-04-10T10:35:39;99875.38;;;19.19;31.11
68988;BME280;56038;46.080;11.116;2023-04-10T10:40:47;99876.50;;;17.78;29.98
68988;BME280;56038;46.080;11.116;2023-04-10T10:45:57;99865.69;;;18.24;28.74
68988;BME280;56038;46.080;11.116;2023-04-10T10:51:03;99852.53;;;17.95;29.22
68988;BME280;56038;46.080;11.116;2023-04-10T10:56:33;99840.44;;;17.63;26.93
68988;BME280;56038;46.080;11.116;2023-04-10T11:01:35;99835.44;;;18.01;26.99
68988;BME280;56038;46.080;11.116;2023-04-10T11:06:51;99830.81;;;18.05;26.38
68988;BME280;56038;46.080;11.116;2023-04-10T11:11:56;99814.59;;;18.65;24.91
68988;BME280;56038;46.080;11.116;2023-04-10T11:16:59;99799.41;;;18.94;26.51
68988;BME280;56038;46.080;11.116;2023-04-10T11:22:06;99794.00;;;19.46;24.98
68988;BME280;56038;46.080;11.116;2023-04-10T11:27:08;99796.38;;;20.00;22.31
68988;BME280;56038;46.080;11.116;2023-04-10T11:32:26;99781.81;;;20.29;22.62
68988;BME280;56038;46.080;11.116;2023-04-10T11:37:29;99775.56;;;20.30;21.16
68988;BME280;56038;46.080;11.116;2023-04-10T11:42:31;99765.03;;;20.77;22.06
68988;BME280;56038;46.080;11.116;2023-04-10T11:47:32;99750.31;;;21.52;23.16
68988;BME280;56038;46.080;11.116;2023-04-10T11:52:35;99753.31;;;21.37;20.77
68988;BME280;56038;46.080;11.116;2023-04-10T11:57:37;99740.25;;;21.56;20.78
68988;BME280;56038;46.080;11.116;2023-04-10T12:02:50;99729.22;;;21.83;20.86
68988;BME280;56038;46.080;11.116;2023-04-10T12:07:54;99718.63;;;22.26;22.72
68988;BME280;56038;46.080;11.116;2023-04-10T12:12:56;99716.50;;;22.41;21.85
68988;BME280;56038;46.080;11.116;2023-04-10T12:17:58;99703.81;;;22.33;24.20
68988;BME280;56038;46.080;11.116;2023-04-10T12:23:01;99702.63;;;22.58;24.53
68988;BME280;56038;46.080;11.116;2023-04-10T12:28:03;99697.47;;;23.08;24.41
68988;BME280;56038;46.080;11.116;2023-04-10T12:33:06;99691.47;;;22.11;25.12
68988;BME280;56038;46.080;11.116;2023-04-10T12:38:09;99684.19;;;22.14;25.14
68988;BME280;56038;46.080;11.116;2023-04-10T12:43:11;99672.66;;;21.81;25.36
68988;BME280;56038;46.080;11.116;2023-04-10T12:48:30;99674.78;;;21.98;25.56
68988;BME280;56038;46.080;11.116;2023-04-10T12:53:43;99656.75;;;22.55;25.26
68988;BME280;56038;46.080;11.116;2023-04-10T12:58:45;99656.13;;;22.41;25.59
68988;BME280;56038;46.080;11.116;2023-04-10T13:03:47;99645.31;;;22.85;25.30
68988;BME280;56038;46.080;11.116;2023-04-10T13:08:50;99644.84;;;23.41;24.63
68988;BME280;56038;46.080;11.116;2023-04-10T13:13:52;99650.25;;;23.70;24.78
68988;BME280;56038;46.080;11.116;2023-04-10T13:18:54;99645.38;;;23.84;23.56
68988;BME280;56038;46.080;11.116;2023-04-10T13:23:57;99659.47;;;22.23;24.77
68988;BME280;56038;46.080;11.116;2023-04-10T13:28:59;99643.84;;;21.97;25.73
68988;BME280;56038;46.080;11.116;2023-04-10T13:34:00;99645.81;;;21.84;24.94
68988;BME280;56038;46.080;11.116;2023-04-10T13:39:03;99632.84;;;22.23;25.64
68988;BME280;56038;46.080;11.116;2023-04-10T13:44:05;99626.91;;;22.30;25.67
68988;BME280;56038;46.080;11.116;2023-04-10T13:49:07;99620.41;;;23.36;24.79
68988;BME280;56038;46.080;11.116;2023-04-10T13:54:10;99616.69;;;23.77;24.41
68988;BME280;56038;46.080;11.116;2023-04-10T13:59:12;99605.91;;;22.37;25.07
68988;BME280;56038;46.080;11.116;2023-04-10T14:04:13;99622.00;;;21.50;25.92
68988;BME280;56038;46.080;11.116;2023-04-10T14:09:16;99619.63;;;21.03;26.05
68988;BME280;56038;46.080;11.116;2023-04-10T14:14:19;99593.44;;;20.53;27.29
68988;BME280;56038;46.080;11.116;2023-04-10T14:19:23;99586.50;;;20.40;27.35
68988;BME280;56038;46.080;11.116;2023-04-10T14:24:26;99595.69;;;20.47;27.12
68988;BME280;56038;46.080;11.116;2023-04-10T14:29:28;99577.13;;;20.91;27.18
68988;BME280;56038;46.080;11.116;2023-04-10T14:34:29;99581.31;;;21.28;26.39
68988;BME280;56038;46.080;11.116;2023-04-10T14:39:33;99579.66;;;20.82;27.36
68988;BME280;56038;46.080;11.116;2023-04-10T14:44:35;99570.97;;;20.91;27.17
68988;BME280;56038;46.080;11.116;2023-04-10T14:49:37;99574.47;;;20.47;27.51
68988;BME280;56038;46.080;11.116;2023-04-10T14:54:40;99580.69;;;20.34;27.90
68988;BME280;56038;46.080;11.116;2023-04-10T14:59:42;99565.50;;;20.25;28.31
68988;BME280;56038;46.080;11.116;2023-04-10T15:04:44;99554.28;;;19.76;29.23
68988;BME280;56038;46.080;11.116;2023-04-10T15:09:47;99551.47;;;19.53;29.59
68988;BME280;56038;46.080;11.116;2023-04-10T15:14:49;99551.06;;;18.99;30.25
68988;BME280;56038;46.080;11.116;2023-04-10T15:19:51;99557.38;;;18.72;30.66
68988;BME280;56038;46.080;11.116;2023-04-10T15:24:54;99557.91;;;18.26;31.42
68988;BME280;56038;46.080;11.116;2023-04-10T15:29:55;99563.94;;;18.16;31.85
68988;BME280;56038;46.080;11.116;2023-04-10T15:34:57;99572.56;;;17.92;32.14
68988;BME280;56038;46.080;11.116;2023-04-10T15:40:01;99552.25;;;17.80;32.32
68988;BME280;56038;46.080;11.116;2023-04-10T15:45:04;99559.22;;;17.81;32.50
68988;BME280;56038;46.080;11.116;2023-04-10T15:50:06;99562.78;;;17.67;32.94
68988;BME280;56038;46.080;11.116;2023-04-10T15:55:09;99568.38;;;17.36;33.63
68988;BME280;56038;46.080;11.116;2023-04-10T16:00:13;99570.53;;;17.29;33.36
68988;BME280;56038;46.080;11.116;2023-04-10T16:05:16;99562.13;;;17.10;34.24
68988;BME280;56038;46.080;11.116;2023-04-10T16:10:20;99563.19;;;16.93;34.58
68988;BME280;56038;46.080;11.116;2023-04-10T16:15:21;99573.25;;;16.72;34.87
68988;BME280;56038;46.080;11.116;2023-04-10T16:20:23;99577.97;;;16.53;35.00
68988;BME280;56038;46.080;11.116;2023-04-10T16:25:26;99583.47;;;16.20;36.21
68988;BME280;56038;46.080;11.116;2023-04-10T16:30:30;99575.72;;;16.03;36.43
68988;BME280;56038;46.080;11.116;2023-04-10T16:35:31;99579.78;;;15.94;36.21
68988;BME280;56038;46.080;11.116;2023-04-10T16:40:37;99579.72;;;15.80;36.72
68988;BME280;56038;46.080;11.116;2023-04-10T16:45:38;99596.06;;;15.71;36.55
68988;BME280;56038;46.080;11.116;2023-04-10T16:50:40;99592.94;;;15.48;37.65
68988;BME280;56038;46.080;11.116;2023-04-10T16:55:43;99599.72;;;15.37;37.50
68988;BME280;56038;46.080;11.116;2023-04-10T17:00:45;99612.31;;;15.16;38.93
68988;BME280;56038;46.080;11.116;2023-04-10T17:05:56;99614.06;;;15.00;38.78
68988;BME280;56038;46.080;11.116;2023-04-10T17:11:06;99621.09;;;14.83;39.64
68988;BME280;56038;46.080;11.116;2023-04-10T17:16:08;99616.59;;;14.85;38.52
68988;BME280;56038;46.080;11.116;2023-04-10T17:21:12;99628.97;;;14.83;38.77
68988;BME280;56038;46.080;11.116;2023-04-10T17:26:15;99629.63;;;14.71;38.98
68988;BME280;56038;46.080;11.116;2023-04-10T17:31:17;99635.84;;;14.53;39.25
68988;BME280;56038;46.080;11.116;2023-04-10T17:36:19;99628.28;;;14.47;39.48
68988;BME280;56038;46.080;11.116;2023-04-10T17:41:22;99631.13;;;14.42;39.52
68988;BME280;56038;46.080;11.116;2023-04-10T17:46:24;99628.88;;;14.34;39.88
68988;BME280;56038;46.080;11.116;2023-04-10T17:51:25;99631.38;;;14.20;40.37
68988;BME280;56038;46.080;11.116;2023-04-10T17:56:29;99628.44;;;14.09;40.78
68988;BME280;56038;46.080;11.116;2023-04-10T18:01:31;99645.19;;;14.06;40.73
68988;BME280;56038;46.080;11.116;2023-04-10T18:06:32;99653.44;;;13.99;40.81
68988;BME280;56038;46.080;11.116;2023-04-10T18:11:35;99667.09;;;13.88;41.35
68988;BME280;56038;46.080;11.116;2023-04-10T18:16:37;99662.84;;;13.86;41.15
68988;BME280;56038;46.080;11.116;2023-04-10T18:21:39;99669.88;;;13.85;41.60
68988;BME280;56038;46.080;11.116;2023-04-10T18:26:43;99670.41;;;13.74;41.41
68988;BME280;56038;46.080;11.116;2023-04-10T18:31:46;99680.19;;;13.71;41.49
68988;BME280;56038;46.080;11.116;2023-04-10T18:36:48;99677.88;;;13.65;41.80
68988;BME280;56038;46.080;11.116;2023-04-10T18:41:51;99678.09;;;13.60;41.58
68988;BME280;56038;46.080;11.116;2023-04-10T18:46:53;99687.94;;;13.55;42.74
68988;BME280;56038;46.080;11.116;2023-04-10T18:51:54;99700.59;;;13.47;42.27
68988;BME280;56038;46.080;11.116;2023-04-10T18:56:57;99704.91;;;13.48;42.00
68988;BME280;56038;46.080;11.116;2023-04-10T19:01:59;99710.31;;;13.45;42.07
68988;BME280;56038;46.080;11.116;2023-04-10T19:07:01;99718.53;;;13.37;42.45
68988;BME280;56038;46.080;11.116;2023-04-10T19:12:05;99724.63;;;13.38;43.16
68988;BME280;56038;46.080;11.116;2023-04-10T19:17:06;99734.19;;;13.39;42.38
68988;BME280;56038;46.080;11.116;2023-04-10T19:22:08;99740.44;;;13.36;42.34
68988;BME280;56038;46.080;11.116;2023-04-10T19:27:11;99739.88;;;13.30;42.49
68988;BME280;56038;46.080;11.116;2023-04-10T19:32:13;99729.16;;;13.34;42.41
68988;BME280;56038;46.080;11.116;2023-04-10T19:37:15;99735.47;;;13.30;42.55
68988;BME280;56038;46.080;11.116;2023-04-10T19:42:18;99746.19;;;13.26;43.07
68988;BME280;56038;46.080;11.116;2023-04-10T19:47:20;99743.75;;;13.21;43.38
68988;BME280;56038;46.080;11.116;2023-04-10T19:52:21;99741.31;;;13.16;43.13
68988;BME280;56038;46.080;11.116;2023-04-10T19:57:25;99732.53;;;13.17;43.23
68988;BME280;56038;46.080;11.116;2023-04-10T20:02:27;99723.75;;;13.18;43.06
68988;BME280;56038;46.080;11.116;2023-04-10T20:07:28;99718.63;;;13.15;43.25
68988;BME280;56038;46.080;11.116;2023-04-10T20:12:31;99720.22;;;13.19;43.09
68988;BME280;56038;46.080;11.116;2023-04-10T20:17:33;99727.28;;;13.17;43.04
68988;BME280;56038;46.080;11.116;2023-04-10T20:22:35;99721.78;;;13.24;42.96
68988;BME280;56038;46.080;11.116;2023-04-10T20:27:38;99718.50;;;13.18;43.20
68988;BME280;56038;46.080;11.116;2023-04-10T20:32:40;99724.88;;;13.13;43.57
68988;BME280;56038;46.080;11.116;2023-04-10T20:37:41;99713.53;;;13.12;43.33
68988;BME280;56038;46.080;11.116;2023-04-10T20:42:44;99712.78;;;13.09;43.51
68988;BME280;56038;46.080;11.116;2023-04-10T20:47:46;99722.56;;;13.05;43.55
68988;BME280;56038;46.080;11.116;2023-04-10T20:52:48;99727.97;;;13.02;43.59
68988;BME280;56038;46.080;11.116;2023-04-10T20:57:51;99724.28;;;13.06;43.58
68988;BME280;56038;46.080;11.116;2023-04-10T21:02:52;99738.31;;;13.05;43.41
68988;BME280;56038;46.080;11.116;2023-04-10T21:07:54;99744.81;;;12.97;43.61
68988;BME280;56038;46.080;11.116;2023-04-10T21:12:58;99752.75;;;12.95;44.00
68988;BME280;56038;46.080;11.116;2023-04-10T21:18:00;99748.22;;;12.99;43.66
68988;BME280;56038;46.080;11.116;2023-04-10T21:23:01;99754.25;;;13.01;43.97
68988;BME280;56038;46.080;11.116;2023-04-10T21:28:05;99740.44;;;12.97;43.84
68988;BME280;56038;46.080;11.116;2023-04-10T21:33:06;99730.78;;;12.98;44.02
68988;BME280;56038;46.080;11.116;2023-04-10T21:38:08;99727.25;;;12.99;44.27
68988;BME280;56038;46.080;11.116;2023-04-10T21:43:11;99721.97;;;12.80;45.11
68988;BME280;56038;46.080;11.116;2023-04-10T21:48:13;99737.81;;;12.77;45.13
68988;BME280;56038;46.080;11.116;2023-04-10T21:53:15;99731.06;;;12.71;45.55
68988;BME280;56038;46.080;11.116;2023-04-10T21:58:18;99714.69;;;12.66;45.49
68988;BME280;56038;46.080;11.116;2023-04-10T22:03:20;99708.84;;;12.59;45.59
68988;BME280;56038;46.080;11.116;2023-04-10T22:08:21;99702.31;;;12.49;46.08
68988;BME280;56038;46.080;11.116;2023-04-10T22:13:25;99714.50;;;12.50;45.95
68988;BME280;56038;46.080;11.116;2023-04-10T22:18:26;99735.63;;;12.46;45.95
68988;BME280;56038;46.080;11.116;2023-04-10T22:23:29;99738.31;;;12.44;46.09
68988;BME280;56038;46.080;11.116;2023-04-10T22:28:33;99746.13;;;12.46;46.26
68988;BME280;56038;46.080;11.116;2023-04-10T22:33:34;99742.63;;;12.45;45.96
68988;BME280;56038;46.080;11.116;2023-04-10T22:38:37;99741.84;;;12.43;45.91
68988;BME280;56038;46.080;11.116;2023-04-10T22:43:40;99751.31;;;12.47;46.02
68988;BME280;56038;46.080;11.116;2023-04-10T22:48:41;99751.19;;;12.50;46.01
68988;BME280;56038;46.080;11.116;2023-04-10T22:53:43;99749.47;;;12.49;45.73
68988;BME280;56038;46.080;11.116;2023-04-10T22:58:46;99744.47;;;12.43;46.03
68988;BME280;56038;46.080;11.116;2023-04-10T23:03:49;99732.28;;;12.42;45.98
68988;BME280;56038;46.080;11.116;2023-04-10T23:08:52;99729.94;;;12.36;46.61
68988;BME280;56038;46.080;11.116;2023-04-10T23:13:55;99727.47;;;12.33;46.83
68988;BME280;56038;46.080;11.116;2023-04-10T23:18:57;99722.28;;;12.32;47.41
68988;BME280;56038;46.080;11.116;2023-04-10T23:23:59;99723.44;;;12.24;47.46
68988;BME280;56038;46.080;11.116;2023-04-10T23:29:02;99699.38;;;12.15;47.91
68988;BME280;56038;46.080;11.116;2023-04-10T23:34:03;99683.81;;;12.12;47.94
68988;BME280;56038;46.080;11.116;2023-04-10T23:39:05;99686.19;;;12.18;48.02
68988;BME280;56038;46.080;11.116;2023-04-10T23:44:09;99686.06;;;12.21;47.79
68988;BME280;56038;46.080;11.116;2023-04-10T23:49:10;99694.03;;;12.18;48.13
68988;BME280;56038;46.080;11.116;2023-04-10T23:54:12;99688.25;;;12.10;48.40
68988;BME280;56038;46.080;11.116;2023-04-10T23:59:15;99688.38;;;12.07;48.56
